sensor_id;sensor_type;location;lat;lon;timestamp;pressure;altitude;pressure_sealevel;temperature;humidity
64292;BME280;50628;51.008;13.658;2022-12-29T00:04:11;99091.75;;;8.83;100.00
64292;BME280;50628;51.008;13.658;2022-12-29T00:09:16;99087.56;;;8.92;100.00
64292;BME280;50628;51.008;13.658;2022-12-29T00:14:18;99072.28;;;8.98;100.00
64292;BME280;50628;51.008;13.658;2022-12-29T00:19:37;99098.41;;;9.06;100.00
64292;BME280;50628;51.008;13.658;2022-12-29T00:24:58;99076.72;;;9.07;100.00
64292;BME280;50628;51.008;13.658;2022-12-29T00:30:18;99047.31;;;9.07;100.00
64292;BME280;50628;51.008;13.658;2022-12-29T00:35:39;99049.72;;;9.20;100.00
64292;BME280;50628;51.008;13.658;2022-12-29T00:40:46;99052.47;;;9.28;100.00
64292;BME280;50628;51.008;13.658;2022-12-29T00:46:07;99038.47;;;9.19;100.00
64292;BME280;50628;51.008;13.658;2022-12-29T00:51:09;99026.97;;;9.12;100.00
64292;BME280;50628;51.008;13.658;2022-12-29T00:56:12;99028.72;;;9.02;100.00
64292;BME280;50628;51.008;13.658;2022-12-29T01:01:14;99026.63;;;8.86;100.00
64292;BME280;50628;51.008;13.658;2022-12-29T01:06:16;99029.16;;;8.76;100.00
64292;BME280;50628;51.008;13.658;2022-12-29T01:11:19;99024.06;;;8.65;100.00
64292;BME280;50628;51.008;13.658;2022-12-29T01:16:21;99030.06;;;8.65;100.00
64292;BME280;50628;51.008;13.658;2022-12-29T01:21:23;99024.28;;;8.52;100.00
64292;BME280;50628;51.008;13.658;2022-12-29T01:26:27;99020.09;;;8.40;100.00
64292;BME280;50628;51.008;13.658;2022-12-29T01:31:29;99022.09;;;8.36;100.00
64292;BME280;50628;51.008;13.658;2022-12-29T01:36:31;99018.78;;;8.45;100.00
64292;BME280;50628;51.008;13.658;2022-12-29T01:41:34;99017.56;;;8.50;100.00
64292;BME280;50628;51.008;13.658;2022-12-29T01:46:38;99009.59;;;8.62;100.00
64292;BME280;50628;51.008;13.658;2022-12-29T01:51:44;99019.03;;;8.73;100.00
64292;BME280;50628;51.008;13.658;2022-12-29T01:56:50;99015.06;;;8.69;100.00
64292;BME280;50628;51.008;13.658;2022-12-29T02:01:52;99006.47;;;8.69;100.00
64292;BME280;50628;51.008;13.658;2022-12-29T02:06:58;98994.19;;;8.71;100.00
64292;BME280;50628;51.008;13.658;2022-12-29T02:12:02;98991.16;;;8.65;100.00
64292;BME280;50628;51.008;13.658;2022-12-29T02:17:09;98979.44;;;8.71;100.00
64292;BME280;50628;51.008;13.658;2022-12-29T02:22:24;98967.03;;;8.75;100.00
64292;BME280;50628;51.008;13.658;2022-12-29T02:27:40;98971.84;;;8.89;100.00
64292;BME280;50628;51.008;13.658;2022-12-29T02:32:51;98962.75;;;9.04;100.00
64292;BME280;50628;51.008;13.658;2022-12-29T02:38:01;98967.94;;;9.04;100.00
64292;BME280;50628;51.008;13.658;2022-12-29T02:43:13;98958.13;;;9.08;100.00
64292;BME280;50628;51.008;13.658;2022-12-29T02:48:21;98961.13;;;9.13;100.00
64292;BME280;50628;51.008;13.658;2022-12-29T02:53:26;98963.34;;;9.27;100.00
64292;BME280;50628;51.008;13.658;2022-12-29T02:58:47;98961.72;;;9.36;100.00
64292;BME280;50628;51.008;13.658;2022-12-29T03:04:16;98954.22;;;9.43;100.00
64292;BME280;50628;51.008;13.658;2022-12-29T03:09:26;98948.88;;;9.54;100.00
64292;BME280;50628;51.008;13.658;2022-12-29T03:14:34;98945.31;;;9.74;100.00
64292;BME280;50628;51.008;13.658;2022-12-29T03:20:03;98954.06;;;9.83;100.00
64292;BME280;50628;51.008;13.658;2022-12-29T03:25:09;98946.81;;;9.96;100.00
64292;BME280;50628;51.008;13.658;2022-12-29T03:30:13;98945.69;;;9.99;100.00
64292;BME280;50628;51.008;13.658;2022-12-29T03:35:20;98940.91;;;9.94;100.00
64292;BME280;50628;51.008;13.658;2022-12-29T03:40:23;98927.63;;;9.97;100.00
64292;BME280;50628;51.008;13.658;2022-12-29T03:45:26;98919.13;;;10.05;100.00
64292;BME280;50628;51.008;13.658;2022-12-29T03:50:29;98916.41;;;10.07;100.00
64292;BME280;50628;51.008;13.658;2022-12-29T03:55:31;98919.53;;;10.10;100.00
64292;BME280;50628;51.008;13.658;2022-12-29T04:00:33;98909.41;;;10.07;100.00
64292;BME280;50628;51.008;13.658;2022-12-29T04:05:36;98909.00;;;10.12;100.00
64292;BME280;50628;51.008;13.658;2022-12-29T04:10:38;98906.97;;;10.15;100.00
64292;BME280;50628;51.008;13.658;2022-12-29T04:15:42;98896.41;;;10.17;100.00
64292;BME280;50628;51.008;13.658;2022-12-29T04:20:46;98881.75;;;10.16;100.00
64292;BME280;50628;51.008;13.658;2022-12-29T04:26:06;98885.28;;;10.25;100.00
64292;BME280;50628;51.008;13.658;2022-12-29T04:31:14;98889.28;;;10.19;100.00
64292;BME280;50628;51.008;13.658;2022-12-29T04:36:19;98877.91;;;10.20;100.00
64292;BME280;50628;51.008;13.658;2022-12-29T04:41:21;98885.97;;;10.27;100.00
64292;BME280;50628;51.008;13.658;2022-12-29T04:46:23;98891.75;;;10.21;100.00
64292;BME280;50628;51.008;13.658;2022-12-29T04:51:40;98893.91;;;10.25;100.00
64292;BME280;50628;51.008;13.658;2022-12-29T04:56:44;98903.47;;;10.25;100.00
64292;BME280;50628;51.008;13.658;2022-12-29T05:01:48;98902.28;;;10.19;100.00
64292;BME280;50628;51.008;13.658;2022-12-29T05:06:52;98921.47;;;10.08;100.00
64292;BME280;50628;51.008;13.658;2022-12-29T05:11:54;98932.41;;;10.02;100.00
64292;BME280;50628;51.008;13.658;2022-12-29T05:16:56;98939.56;;;9.90;100.00
64292;BME280;50628;51.008;13.658;2022-12-29T05:22:00;98929.72;;;9.84;100.00
64292;BME280;50628;51.008;13.658;2022-12-29T05:27:04;98929.44;;;9.87;100.00
64292;BME280;50628;51.008;13.658;2022-12-29T05:32:19;98938.06;;;9.88;100.00
64292;BME280;50628;51.008;13.658;2022-12-29T05:37:22;98942.44;;;9.87;100.00
64292;BME280;50628;51.008;13.658;2022-12-29T05:42:24;98962.53;;;9.95;100.00
64292;BME280;50628;51.008;13.658;2022-12-29T05:47:37;98964.31;;;9.94;100.00
64292;BME280;50628;51.008;13.658;2022-12-29T05:53:13;98947.09;;;9.93;100.00
64292;BME280;50628;51.008;13.658;2022-12-29T05:58:17;98946.13;;;9.94;100.00
64292;BME280;50628;51.008;13.658;2022-12-29T06:03:19;98953.91;;;9.94;100.00
64292;BME280;50628;51.008;13.658;2022-12-29T06:08:23;98952.41;;;10.02;100.00
64292;BME280;50628;51.008;13.658;2022-12-29T06:13:24;98959.50;;;10.00;100.00
64292;BME280;50628;51.008;13.658;2022-12-29T06:18:28;98956.78;;;10.01;100.00
64292;BME280;50628;51.008;13.658;2022-12-29T06:23:33;98964.59;;;10.01;100.00
64292;BME280;50628;51.008;13.658;2022-12-29T06:28:34;98951.03;;;9.97;100.00
64292;BME280;50628;51.008;13.658;2022-12-29T06:33:37;98941.78;;;9.85;100.00
64292;BME280;50628;51.008;13.658;2022-12-29T06:38:40;98940.09;;;9.94;100.00
64292;BME280;50628;51.008;13.658;2022-12-29T06:43:42;98935.72;;;9.94;100.00
64292;BME280;50628;51.008;13.658;2022-12-29T06:49:02;98926.69;;;9.89;100.00
64292;BME280;50628;51.008;13.658;2022-12-29T06:54:06;98920.13;;;9.94;100.00
64292;BME280;50628;51.008;13.658;2022-12-29T06:59:09;98919.44;;;9.92;100.00
64292;BME280;50628;51.008;13.658;2022-12-29T07:04:11;98932.03;;;9.87;100.00
64292;BME280;50628;51.008;13.658;2022-12-29T07:09:14;98916.31;;;9.79;100.00
64292;BME280;50628;51.008;13.658;2022-12-29T07:14:16;98939.56;;;9.90;100.00
64292;BME280;50628;51.008;13.658;2022-12-29T07:19:18;98948.47;;;9.88;100.00
64292;BME280;50628;51.008;13.658;2022-12-29T07:24:22;98940.53;;;9.80;100.00
64292;BME280;50628;51.008;13.658;2022-12-29T07:29:26;98960.09;;;9.93;100.00
64292;BME280;50628;51.008;13.658;2022-12-29T07:34:27;98956.91;;;10.00;100.00
64292;BME280;50628;51.008;13.658;2022-12-29T07:39:31;98929.53;;;10.05;100.00
64292;BME280;50628;51.008;13.658;2022-12-29T07:44:32;98930.34;;;10.15;100.00
64292;BME280;50628;51.008;13.658;2022-12-29T07:49:50;98930.34;;;10.15;100.00
64292;BME280;50628;51.008;13.658;2022-12-29T07:54:53;98937.06;;;10.08;100.00
64292;BME280;50628;51.008;13.658;2022-12-29T07:59:55;98938.69;;;10.09;100.00
64292;BME280;50628;51.008;13.658;2022-12-29T08:04:57;98936.38;;;10.16;100.00
64292;BME280;50628;51.008;13.658;2022-12-29T08:10:00;98945.25;;;10.23;100.00
64292;BME280;50628;51.008;13.658;2022-12-29T08:15:02;98957.28;;;10.24;100.00
64292;BME280;50628;51.008;13.658;2022-12-29T08:20:06;98971.13;;;10.34;100.00
64292;BME280;50628;51.008;13.658;2022-12-29T08:25:09;98960.53;;;10.46;100.00
64292;BME280;50628;51.008;13.658;2022-12-29T08:30:12;98960.69;;;10.44;100.00
64292;BME280;50628;51.008;13.658;2022-12-29T08:35:14;98947.81;;;10.43;100.00
64292;BME280;50628;51.008;13.658;2022-12-29T08:40:17;98967.38;;;10.47;100.00
64292;BME280;50628;51.008;13.658;2022-12-29T08:45:19;98962.06;;;10.48;100.00
64292;BME280;50628;51.008;13.658;2022-12-29T08:50:21;98969.16;;;10.56;100.00
64292;BME280;50628;51.008;13.658;2022-12-29T08:55:25;98962.97;;;10.57;100.00
64292;BME280;50628;51.008;13.658;2022-12-29T09:00:28;98971.28;;;10.60;100.00
64292;BME280;50628;51.008;13.658;2022-12-29T09:05:31;98964.84;;;10.65;100.00
64292;BME280;50628;51.008;13.658;2022-12-29T09:10:34;98959.66;;;10.65;100.00
64292;BME280;50628;51.008;13.658;2022-12-29T09:15:36;98964.72;;;10.66;100.00
64292;BME280;50628;51.008;13.658;2022-12-29T09:20:38;98957.44;;;10.70;100.00
64292;BME280;50628;51.008;13.658;2022-12-29T09:25:41;98952.22;;;10.70;100.00
64292;BME280;50628;51.008;13.658;2022-12-29T09:30:43;98955.34;;;10.73;100.00
64292;BME280;50628;51.008;13.658;2022-12-29T09:35:50;98943.19;;;10.74;100.00
64292;BME280;50628;51.008;13.658;2022-12-29T09:40:56;98957.69;;;10.76;100.00
64292;BME280;50628;51.008;13.658;2022-12-29T09:46:06;98951.38;;;10.79;100.00
64292;BME280;50628;51.008;13.658;2022-12-29T09:51:15;98955.34;;;10.73;100.00
64292;BME280;50628;51.008;13.658;2022-12-29T09:56:23;98947.94;;;10.78;100.00
64292;BME280;50628;51.008;13.658;2022-12-29T10:01:30;98946.25;;;10.87;100.00
64292;BME280;50628;51.008;13.658;2022-12-29T10:06:37;98946.50;;;10.94;100.00
64292;BME280;50628;51.008;13.658;2022-12-29T10:11:57;98953.47;;;11.21;100.00
64292;BME280;50628;51.008;13.658;2022-12-29T10:17:13;98956.91;;;11.39;100.00
64292;BME280;50628;51.008;13.658;2022-12-29T10:22:28;98945.31;;;11.52;100.00
64292;BME280;50628;51.008;13.658;2022-12-29T10:27:35;98945.50;;;11.58;100.00
64292;BME280;50628;51.008;13.658;2022-12-29T10:32:40;98946.13;;;11.70;100.00
64292;BME280;50628;51.008;13.658;2022-12-29T10:37:50;98940.72;;;11.72;100.00
64292;BME280;50628;51.008;13.658;2022-12-29T10:42:57;98936.19;;;11.74;100.00
64292;BME280;50628;51.008;13.658;2022-12-29T10:48:01;98928.97;;;11.85;100.00
64292;BME280;50628;51.008;13.658;2022-12-29T10:53:05;98919.00;;;12.07;100.00
64292;BME280;50628;51.008;13.658;2022-12-29T10:58:12;98912.28;;;12.22;100.00
64292;BME280;50628;51.008;13.658;2022-12-29T11:08:57;98895.25;;;12.44;100.00
64292;BME280;50628;51.008;13.658;2022-12-29T11:14:07;98896.94;;;12.53;100.00
64292;BME280;50628;51.008;13.658;2022-12-29T11:19:22;98888.88;;;12.73;100.00
64292;BME280;50628;51.008;13.658;2022-12-29T11:24:26;98907.47;;;12.78;99.81
64292;BME280;50628;51.008;13.658;2022-12-29T11:29:37;98889.16;;;12.70;100.00
64292;BME280;50628;51.008;13.658;2022-12-29T11:34:39;98895.56;;;12.75;100.00
64292;BME280;50628;51.008;13.658;2022-12-29T11:39:46;98886.59;;;12.78;100.00
64292;BME280;50628;51.008;13.658;2022-12-29T11:44:53;98883.97;;;12.78;100.00
64292;BME280;50628;51.008;13.658;2022-12-29T11:49:57;98904.75;;;12.88;100.00
64292;BME280;50628;51.008;13.658;2022-12-29T11:55:02;98893.31;;;12.97;100.00
64292;BME280;50628;51.008;13.658;2022-12-29T12:00:15;98886.75;;;12.76;100.00
64292;BME280;50628;51.008;13.658;2022-12-29T12:05:25;98890.25;;;12.59;100.00
64292;BME280;50628;51.008;13.658;2022-12-29T12:10:34;98883.88;;;12.53;100.00
64292;BME280;50628;51.008;13.658;2022-12-29T12:15:44;98888.63;;;12.50;100.00
64292;BME280;50628;51.008;13.658;2022-12-29T12:20:52;98871.66;;;12.54;100.00
64292;BME280;50628;51.008;13.658;2022-12-29T12:25:59;98872.59;;;12.45;100.00
64292;BME280;50628;51.008;13.658;2022-12-29T12:31:13;98875.50;;;12.42;100.00
64292;BME280;50628;51.008;13.658;2022-12-29T12:36:37;98888.28;;;12.45;100.00
64292;BME280;50628;51.008;13.658;2022-12-29T12:41:51;98867.94;;;12.65;98.76
64292;BME280;50628;51.008;13.658;2022-12-29T12:47:14;98862.00;;;12.54;99.04
64292;BME280;50628;51.008;13.658;2022-12-29T12:52:25;98865.63;;;12.62;98.46
64292;BME280;50628;51.008;13.658;2022-12-29T12:57:40;98851.16;;;12.75;95.07
64292;BME280;50628;51.008;13.658;2022-12-29T13:02:59;98851.84;;;12.86;94.35
64292;BME280;50628;51.008;13.658;2022-12-29T13:08:32;98852.66;;;12.86;94.00
64292;BME280;50628;51.008;13.658;2022-12-29T13:13:50;98855.34;;;13.35;88.64
64292;BME280;50628;51.008;13.658;2022-12-29T13:19:00;98851.44;;;13.39;88.13
64292;BME280;50628;51.008;13.658;2022-12-29T13:24:12;98863.69;;;13.39;86.69
64292;BME280;50628;51.008;13.658;2022-12-29T13:29:20;98848.94;;;13.13;89.54
64292;BME280;50628;51.008;13.658;2022-12-29T13:34:32;98874.72;;;13.00;90.22
64292;BME280;50628;51.008;13.658;2022-12-29T13:39:42;98874.38;;;12.95;90.23
64292;BME280;50628;51.008;13.658;2022-12-29T13:44:51;98866.53;;;12.95;91.07
64292;BME280;50628;51.008;13.658;2022-12-29T13:49:58;98875.84;;;12.89;92.19
64292;BME280;50628;51.008;13.658;2022-12-29T13:55:18;98879.06;;;12.75;94.28
64292;BME280;50628;51.008;13.658;2022-12-29T14:00:24;98878.88;;;12.68;95.34
64292;BME280;50628;51.008;13.658;2022-12-29T14:05:31;98874.78;;;12.58;96.88
64292;BME280;50628;51.008;13.658;2022-12-29T14:10:35;98862.00;;;12.54;98.62
64292;BME280;50628;51.008;13.658;2022-12-29T14:15:39;98873.38;;;12.37;100.00
64292;BME280;50628;51.008;13.658;2022-12-29T14:20:54;98875.16;;;12.37;100.00
64292;BME280;50628;51.008;13.658;2022-12-29T14:26:00;98887.72;;;12.33;100.00
64292;BME280;50628;51.008;13.658;2022-12-29T14:31:33;98881.47;;;12.26;100.00
64292;BME280;50628;51.008;13.658;2022-12-29T14:36:38;98888.28;;;12.19;100.00
64292;BME280;50628;51.008;13.658;2022-12-29T14:41:40;98897.56;;;12.13;100.00
64292;BME280;50628;51.008;13.658;2022-12-29T14:46:49;98905.16;;;12.06;100.00
64292;BME280;50628;51.008;13.658;2022-12-29T14:52:07;98910.75;;;12.11;100.00
64292;BME280;50628;51.008;13.658;2022-12-29T14:57:26;98908.34;;;12.18;100.00
64292;BME280;50628;51.008;13.658;2022-12-29T15:02:34;98910.38;;;12.06;100.00
64292;BME280;50628;51.008;13.658;2022-12-29T15:07:40;98909.88;;;12.03;100.00
64292;BME280;50628;51.008;13.658;2022-12-29T15:12:46;98925.56;;;12.11;100.00
64292;BME280;50628;51.008;13.658;2022-12-29T15:17:52;98917.16;;;12.17;100.00
64292;BME280;50628;51.008;13.658;2022-12-29T15:22:57;98926.84;;;12.07;100.00
64292;BME280;50628;51.008;13.658;2022-12-29T15:28:02;98937.44;;;12.05;100.00
64292;BME280;50628;51.008;13.658;2022-12-29T15:33:17;98944.31;;;11.88;100.00
64292;BME280;50628;51.008;13.658;2022-12-29T15:38:23;98947.53;;;11.82;100.00
64292;BME280;50628;51.008;13.658;2022-12-29T15:43:45;98947.34;;;11.84;100.00
64292;BME280;50628;51.008;13.658;2022-12-29T15:48:50;99010.41;;;11.97;100.00
64292;BME280;50628;51.008;13.658;2022-12-29T15:53:54;98975.84;;;11.95;100.00
64292;BME280;50628;51.008;13.658;2022-12-29T15:58:57;98986.25;;;11.77;100.00
64292;BME280;50628;51.008;13.658;2022-12-29T16:03:59;98996.69;;;11.77;100.00
64292;BME280;50628;51.008;13.658;2022-12-29T16:09:05;99005.38;;;11.68;100.00
64292;BME280;50628;51.008;13.658;2022-12-29T16:14:09;98992.50;;;11.66;100.00
64292;BME280;50628;51.008;13.658;2022-12-29T16:19:21;99005.47;;;11.58;100.00
64292;BME280;50628;51.008;13.658;2022-12-29T16:24:30;99006.75;;;11.54;100.00
64292;BME280;50628;51.008;13.658;2022-12-29T16:29:34;99015.88;;;11.58;100.00
64292;BME280;50628;51.008;13.658;2022-12-29T16:34:43;99032.84;;;11.44;100.00
64292;BME280;50628;51.008;13.658;2022-12-29T16:39:47;99027.41;;;11.38;100.00
64292;BME280;50628;51.008;13.658;2022-12-29T16:44:50;99029.63;;;11.33;100.00
64292;BME280;50628;51.008;13.658;2022-12-29T16:49:54;99045.56;;;11.30;100.00
64292;BME280;50628;51.008;13.658;2022-12-29T16:55:17;99040.91;;;11.23;100.00
64292;BME280;50628;51.008;13.658;2022-12-29T17:00:22;99035.88;;;11.22;100.00
64292;BME280;50628;51.008;13.658;2022-12-29T17:05:24;99046.41;;;11.20;100.00
64292;BME280;50628;51.008;13.658;2022-12-29T17:10:28;99043.47;;;11.05;100.00
64292;BME280;50628;51.008;13.658;2022-12-29T17:15:50;99041.97;;;11.03;100.00
64292;BME280;50628;51.008;13.658;2022-12-29T17:20:52;99038.84;;;10.99;100.00
64292;BME280;50628;51.008;13.658;2022-12-29T17:25:56;99038.63;;;10.83;100.00
64292;BME280;50628;51.008;13.658;2022-12-29T17:31:00;99057.81;;;10.82;100.00
64292;BME280;50628;51.008;13.658;2022-12-29T17:36:03;99064.41;;;10.76;100.00
64292;BME280;50628;51.008;13.658;2022-12-29T17:41:11;99063.03;;;10.82;100.00
64292;BME280;50628;51.008;13.658;2022-12-29T17:46:14;99068.50;;;10.79;100.00
64292;BME280;50628;51.008;13.658;2022-12-29T17:51:17;99067.53;;;10.80;100.00
64292;BME280;50628;51.008;13.658;2022-12-29T17:56:21;99074.44;;;10.61;100.00
64292;BME280;50628;51.008;13.658;2022-12-29T18:01:23;99077.19;;;10.50;100.00
64292;BME280;50628;51.008;13.658;2022-12-29T18:06:26;99083.66;;;10.46;100.00
64292;BME280;50628;51.008;13.658;2022-12-29T18:11:29;99073.25;;;10.46;100.00
64292;BME280;50628;51.008;13.658;2022-12-29T18:16:31;99081.47;;;10.32;100.00
64292;BME280;50628;51.008;13.658;2022-12-29T18:21:33;99086.13;;;10.28;100.00
64292;BME280;50628;51.008;13.658;2022-12-29T18:26:36;99084.72;;;10.24;100.00
64292;BME280;50628;51.008;13.658;2022-12-29T18:31:38;99080.06;;;10.08;100.00
64292;BME280;50628;51.008;13.658;2022-12-29T18:36:40;99089.38;;;9.91;100.00
64292;BME280;50628;51.008;13.658;2022-12-29T18:41:43;99098.53;;;9.86;100.00
64292;BME280;50628;51.008;13.658;2022-12-29T18:46:45;99089.47;;;9.80;100.00
64292;BME280;50628;51.008;13.658;2022-12-29T18:51:47;99081.97;;;9.87;100.00
64292;BME280;50628;51.008;13.658;2022-12-29T18:56:51;99072.53;;;9.86;100.00
64292;BME280;50628;51.008;13.658;2022-12-29T19:01:52;99081.84;;;9.98;100.00
64292;BME280;50628;51.008;13.658;2022-12-29T19:06:54;99081.00;;;9.97;100.00
64292;BME280;50628;51.008;13.658;2022-12-29T19:11:57;99081.16;;;9.96;100.00
64292;BME280;50628;51.008;13.658;2022-12-29T19:16:59;99071.84;;;9.93;100.00
64292;BME280;50628;51.008;13.658;2022-12-29T19:22:01;99064.06;;;9.93;100.00
64292;BME280;50628;51.008;13.658;2022-12-29T19:27:04;99081.44;;;9.93;100.00
64292;BME280;50628;51.008;13.658;2022-12-29T19:32:06;99085.53;;;9.95;100.00
64292;BME280;50628;51.008;13.658;2022-12-29T19:37:08;99080.88;;;9.89;100.00
64292;BME280;50628;51.008;13.658;2022-12-29T19:42:11;99090.88;;;9.94;100.00
64292;BME280;50628;51.008;13.658;2022-12-29T19:47:13;99071.56;;;9.87;100.00
64292;BME280;50628;51.008;13.658;2022-12-29T19:52:15;99084.84;;;9.93;100.00
64292;BME280;50628;51.008;13.658;2022-12-29T19:57:18;99071.84;;;9.93;100.00
64292;BME280;50628;51.008;13.658;2022-12-29T20:02:22;99075.00;;;9.97;100.00
64292;BME280;50628;51.008;13.658;2022-12-29T20:07:25;99050.22;;;10.03;100.00
64292;BME280;50628;51.008;13.658;2022-12-29T20:12:28;99056.66;;;9.89;100.00
64292;BME280;50628;51.008;13.658;2022-12-29T20:17:30;99065.56;;;9.96;100.00
64292;BME280;50628;51.008;13.658;2022-12-29T20:22:32;99074.72;;;9.81;100.00
64292;BME280;50628;51.008;13.658;2022-12-29T20:27:36;99080.34;;;9.86;100.00
64292;BME280;50628;51.008;13.658;2022-12-29T20:32:38;99074.28;;;9.66;100.00
64292;BME280;50628;51.008;13.658;2022-12-29T20:37:39;99079.06;;;9.61;100.00
64292;BME280;50628;51.008;13.658;2022-12-29T20:42:43;99092.16;;;9.49;100.00
64292;BME280;50628;51.008;13.658;2022-12-29T20:47:45;99077.22;;;9.42;100.00
64292;BME280;50628;51.008;13.658;2022-12-29T20:52:47;99093.84;;;9.20;100.00
64292;BME280;50628;51.008;13.658;2022-12-29T20:57:50;99087.69;;;9.21;100.00
64292;BME280;50628;51.008;13.658;2022-12-29T21:02:52;99094.13;;;9.26;100.00
64292;BME280;50628;51.008;13.658;2022-12-29T21:07:55;99105.75;;;9.22;100.00
64292;BME280;50628;51.008;13.658;2022-12-29T21:13:00;99107.25;;;9.25;100.00
64292;BME280;50628;51.008;13.658;2022-12-29T21:18:02;99103.34;;;9.40;100.00
64292;BME280;50628;51.008;13.658;2022-12-29T21:23:04;99112.19;;;9.28;100.00
64292;BME280;50628;51.008;13.658;2022-12-29T21:28:08;99129.28;;;9.30;100.00
64292;BME280;50628;51.008;13.658;2022-12-29T21:33:11;99133.50;;;9.31;100.00
64292;BME280;50628;51.008;13.658;2022-12-29T21:38:13;99128.19;;;9.33;100.00
64292;BME280;50628;51.008;13.658;2022-12-29T21:43:17;99132.22;;;9.16;100.00
64292;BME280;50628;51.008;13.658;2022-12-29T21:48:18;99141.13;;;8.93;100.00
64292;BME280;50628;51.008;13.658;2022-12-29T21:53:24;99155.81;;;8.82;100.00
64292;BME280;50628;51.008;13.658;2022-12-29T21:58:41;99154.03;;;8.62;100.00
64292;BME280;50628;51.008;13.658;2022-12-29T22:04:01;99161.28;;;8.47;100.00
64292;BME280;50628;51.008;13.658;2022-12-29T22:09:20;99168.69;;;8.52;100.00
64292;BME280;50628;51.008;13.658;2022-12-29T22:14:41;99177.06;;;8.44;100.00
64292;BME280;50628;51.008;13.658;2022-12-29T22:19:43;99186.88;;;8.40;100.00
64292;BME280;50628;51.008;13.658;2022-12-29T22:24:46;99175.88;;;8.48;100.00
64292;BME280;50628;51.008;13.658;2022-12-29T22:29:49;99187.59;;;8.42;100.00
64292;BME280;50628;51.008;13.658;2022-12-29T22:34:51;99183.66;;;8.48;100.00
64292;BME280;50628;51.008;13.658;2022-12-29T22:39:53;99194.75;;;8.50;100.00
64292;BME280;50628;51.008;13.658;2022-12-29T22:44:56;99198.88;;;8.53;100.00
64292;BME280;50628;51.008;13.658;2022-12-29T22:49:58;99187.94;;;8.38;100.00
64292;BME280;50628;51.008;13.658;2022-12-29T22:55:00;99189.34;;;8.31;100.00
64292;BME280;50628;51.008;13.658;2022-12-29T23:00:05;99178.88;;;8.32;100.00
64292;BME280;50628;51.008;13.658;2022-12-29T23:05:08;99194.53;;;8.31;100.00
64292;BME280;50628;51.008;13.658;2022-12-29T23:10:10;99202.47;;;8.29;100.00
64292;BME280;50628;51.008;13.658;2022-12-29T23:15:14;99207.50;;;8.31;100.00
64292;BME280;50628;51.008;13.658;2022-12-29T23:20:15;99212.72;;;8.42;100.00
64292;BME280;50628;51.008;13.658;2022-12-29T23:25:17;99199.94;;;8.50;100.00
64292;BME280;50628;51.008;13.658;2022-12-29T23:30:21;99213.03;;;8.49;100.00
64292;BME280;50628;51.008;13.658;2022-12-29T23:35:22;99196.91;;;8.45;100.00
64292;BME280;50628;51.008;13.658;2022-12-29T23:40:24;99195.81;;;8.48;100.00
64292;BME280;50628;51.008;13.658;2022-12-29T23:45:27;99217.03;;;8.53;100.00
64292;BME280;50628;51.008;13.658;2022-12-29T23:50:29;99226.00;;;8.37;100.00
64292;BME280;50628;51.008;13.658;2022-12-29T23:55:32;99231.94;;;8.39;100.00
